Celebrity Mercury — 9HJG9 — position and weather

sailwx.info

Track history (hours):
 
Tides and Currents Weather Stations Pressure Air Temp Water Temp Dewpoint Dewpoint Depression Visibility Wind Speed Wind Dir Waves Ship Positions

Celebrity Mercury

Last reported at 2017-Nov-18 01:44 UTC. Time now 2017-Nov-19 03:11 UTC.
Position N 28°58' W 013°32'.

Length 264 m; draft 8.5 m.

Type: Ship. MMSI: 249053000.

Date/timePositionNaut miles runAvg speedWind from/ knotsBaromVisibWave heightAir tempDewpointWater temp
2017-Nov-18 01:44N 28°58' W 013°32'0 0.0
2017-Nov-17 21:22N 28°58' W 013°32'  
2017-Nov-15 00:46N 35°58' W 005°36'415.7
2017-Nov-15 00:30N 35°60' W 005°31'715.0
2017-Nov-15 00:00N 36°01' W 005°22'714.5
2017-Nov-14 23:30N 36°02' W 005°13'22215.9
2017-Nov-14 09:31N 37°08' W 000°49'217.0
2017-Nov-14 09:23N 37°10' W 000°47'19017.8
2017-Nov-13 22:43N 39°10' E 002°21'418.9
2017-Nov-13 22:30N 39°14' E 002°23'919.0
2017-Nov-13 22:00N 39°21' E 002°30'13 0.7
2017-Nov-13 02:01N 39°32' E 002°39'611.8
2017-Nov-13 01:30N 39°27' E 002°36'612.4
2017-Nov-13 01:01N 39°24' E 002°29'713.7
2017-Nov-13 00:28N 39°28' E 002°21'111 5.7
2017-Nov-12 04:59N 41°18' E 002°10'9 7.9
2017-Nov-12 03:47N 41°09' E 002°09'412.0
2017-Nov-12 03:29N 41°06' E 002°07'612.1
2017-Nov-12 03:00N 41°01' E 002°03'811.5
2017-Nov-12 02:19N 40°54' E 001°58'21813.6
2017-Nov-11 10:19N 37°40' W 000°11'516.4
2017-Nov-11 10:00N 37°36' W 000°14'816.0
2017-Nov-11 09:30N 37°29' W 000°18'815.8
2017-Nov-11 09:00N 37°24' W 000°26'915.5
2017-Nov-11 08:25N 37°19' W 000°35'715.4
2017-Nov-11 08:00N 37°15' W 000°42'815.6
2017-Nov-11 07:30N 37°09' W 000°49'22116.4
2017-Nov-10 17:59N 36°04' W 005°12'10 0.9
2017-Nov-10 06:31N 36°09' W 005°22'0 6.1
2017-Nov-10 06:30N 36°09' W 005°23'4 7.3
2017-Nov-10 06:00N 36°05' W 005°23'612.0
2017-Nov-10 05:30N 35°59' W 005°24'613.0
2017-Nov-10 05:00N 35°57' W 005°31'27713.2
2017-Nov-09 08:04N 32°38' W 009°24'215.0
2017-Nov-09 07:56N 32°36' W 009°25'615.0
2017-Nov-09 07:30N 32°30' W 009°29'915.0
2017-Nov-09 06:56N 32°23' W 009°33'715.0
2017-Nov-09 06:28N 32°16' W 009°37'714.9
2017-Nov-09 05:59N 32°10' W 009°40'814.9
2017-Nov-09 05:29N 32°03' W 009°44'714.9
2017-Nov-09 05:00N 31°57' W 009°48'714.7
2017-Nov-09 04:30N 31°50' W 009°52'814.4
2017-Nov-09 03:56N 31°43' W 009°56'1014.5
2017-Nov-09 03:13N 31°33' W 010°01'314.4
2017-Nov-09 02:59N 31°30' W 010°02'714.4
2017-Nov-09 02:29N 31°24' W 010°06'2014.2
2017-Nov-09 01:05N 31°04' W 010°09'414.5
2017-Nov-09 00:50N 31°00' W 010°09'44 2.5
2017-Nov-08 06:58N 30°22' W 009°43'  
Track history (hours):
 
Tides and Currents Weather Stations Pressure Air Temp Water Temp Dewpoint Dewpoint Depression Visibility Wind Speed Wind Dir Waves Ship Positions

Celebrity Mercury

Last reported at 2017-Nov-18 01:44 UTC. Time now 2017-Nov-19 03:11 UTC.
Position N 28°58' W 013°32'.

Length 264 m; draft 8.5 m.

Type: Ship. MMSI: 249053000.

Date/timePositionNaut miles runAvg speedWind from/ knotsBaromVisibWave heightAir tempDewpointWater temp
2017-Nov-18 01:44N 28°58' W 013°32'0 0.0
2017-Nov-17 21:22N 28°58' W 013°32'  
2017-Nov-15 00:46N 35°58' W 005°36'415.7
2017-Nov-15 00:30N 35°60' W 005°31'715.0
2017-Nov-15 00:00N 36°01' W 005°22'714.5
2017-Nov-14 23:30N 36°02' W 005°13'22215.9
2017-Nov-14 09:31N 37°08' W 000°49'217.0
2017-Nov-14 09:23N 37°10' W 000°47'19017.8
2017-Nov-13 22:43N 39°10' E 002°21'418.9
2017-Nov-13 22:30N 39°14' E 002°23'919.0
2017-Nov-13 22:00N 39°21' E 002°30'13 0.7
2017-Nov-13 02:01N 39°32' E 002°39'611.8
2017-Nov-13 01:30N 39°27' E 002°36'612.4
2017-Nov-13 01:01N 39°24' E 002°29'713.7
2017-Nov-13 00:28N 39°28' E 002°21'111 5.7
2017-Nov-12 04:59N 41°18' E 002°10'9 7.9
2017-Nov-12 03:47N 41°09' E 002°09'412.0
2017-Nov-12 03:29N 41°06' E 002°07'612.1
2017-Nov-12 03:00N 41°01' E 002°03'811.5
2017-Nov-12 02:19N 40°54' E 001°58'21813.6
2017-Nov-11 10:19N 37°40' W 000°11'516.4
2017-Nov-11 10:00N 37°36' W 000°14'816.0
2017-Nov-11 09:30N 37°29' W 000°18'815.8
2017-Nov-11 09:00N 37°24' W 000°26'915.5
2017-Nov-11 08:25N 37°19' W 000°35'715.4
2017-Nov-11 08:00N 37°15' W 000°42'815.6
2017-Nov-11 07:30N 37°09' W 000°49'22116.4
2017-Nov-10 17:59N 36°04' W 005°12'10 0.9
2017-Nov-10 06:31N 36°09' W 005°22'0 6.1
2017-Nov-10 06:30N 36°09' W 005°23'4 7.3
2017-Nov-10 06:00N 36°05' W 005°23'612.0
2017-Nov-10 05:30N 35°59' W 005°24'613.0
2017-Nov-10 05:00N 35°57' W 005°31'27713.2
2017-Nov-09 08:04N 32°38' W 009°24'215.0
2017-Nov-09 07:56N 32°36' W 009°25'615.0
2017-Nov-09 07:30N 32°30' W 009°29'915.0
2017-Nov-09 06:56N 32°23' W 009°33'715.0
2017-Nov-09 06:28N 32°16' W 009°37'714.9
2017-Nov-09 05:59N 32°10' W 009°40'814.9
2017-Nov-09 05:29N 32°03' W 009°44'714.9
2017-Nov-09 05:00N 31°57' W 009°48'714.7
2017-Nov-09 04:30N 31°50' W 009°52'814.4
2017-Nov-09 03:56N 31°43' W 009°56'1014.5
2017-Nov-09 03:13N 31°33' W 010°01'314.4
2017-Nov-09 02:59N 31°30' W 010°02'714.4
2017-Nov-09 02:29N 31°24' W 010°06'2014.2
2017-Nov-09 01:05N 31°04' W 010°09'414.5
2017-Nov-09 00:50N 31°00' W 010°09'44 2.5
2017-Nov-08 06:58N 30°22' W 009°43'  

Dump ship's entire track history